Time;durP1;ratioP1;P1;durP2;ratioP2;P2;SDS_P1;SDS_P2;PMS_P1;PMS_P2;Temp;Humidity;BMP_temperature;BMP_pressure;BME280_temperature;BME280_humidity;BME280_pressure;Samples;Min_cycle;Max_cycle;Signal;HPM_P1;HPM_P2
2023/09/18 00:00:26;;;;;;;2.90;2.70;;;24.30;72.00;;;;;;4920643;28;92611;-90
2023/09/18 00:02:52;;;;;;;4.13;3.35;;;24.30;72.10;;;;;;4938487;28;92491;-90
2023/09/18 00:05:17;;;;;;;3.97;3.58;;;24.30;72.10;;;;;;4936571;28;93152;-90
2023/09/18 00:07:43;;;;;;;3.55;2.95;;;24.30;72.10;;;;;;4937495;28;92601;-90
2023/09/18 00:10:13;;;;;;;3.92;3.50;;;24.30;72.10;;;;;;4918205;28;92364;-90
2023/09/18 00:12:39;;;;;;;3.88;3.28;;;24.30;72.00;;;;;;4920587;28;92062;-90
2023/09/18 00:15:05;;;;;;;3.75;2.80;;;24.30;71.90;;;;;;4919110;28;93270;-90
2023/09/18 00:17:32;;;;;;;3.28;2.97;;;24.30;71.90;;;;;;4920021;28;94722;-89
2023/09/18 00:19:57;;;;;;;3.13;2.83;;;24.30;72.00;;;;;;4937060;28;93608;-89
2023/09/18 00:22:24;;;;;;;3.75;3.08;;;24.30;72.10;;;;;;4916902;28;95185;-90
2023/09/18 00:24:50;;;;;;;3.33;2.97;;;24.30;72.10;;;;;;4920530;28;93821;-90
2023/09/18 00:27:16;;;;;;;3.47;3.17;;;24.30;72.00;;;;;;4920255;28;95242;-90
2023/09/18 00:29:42;;;;;;;3.47;3.17;;;24.30;71.80;;;;;;4919810;28;93099;-90
2023/09/18 00:32:08;;;;;;;3.33;2.88;;;24.30;72.10;;;;;;4920066;28;92785;-89
2023/09/18 00:34:33;;;;;;;4.15;3.47;;;24.30;72.00;;;;;;4937300;28;92835;-90
2023/09/18 00:36:59;;;;;;;3.95;3.55;;;24.30;72.00;;;;;;4923163;28;95063;-90
2023/09/18 00:39:25;;;;;;;3.42;3.13;;;24.30;71.90;;;;;;4920993;28;92415;-90
2023/09/18 00:41:53;;;;;;;3.67;3.28;;;24.30;71.90;;;;;;4938572;28;92210;-90
2023/09/18 00:44:21;;;;;;;3.55;3.25;;;24.30;71.90;;;;;;4934043;28;94167;-89
2023/09/18 00:46:48;;;;;;;3.15;2.83;;;24.30;71.90;;;;;;4937273;28;93669;-90
2023/09/18 00:49:14;;;;;;;4.00;3.65;;;24.30;72.00;;;;;;4922522;28;92621;-91
2023/09/18 00:51:40;;;;;;;3.47;3.17;;;24.30;72.00;;;;;;4927356;28;92590;-90
2023/09/18 00:54:07;;;;;;;3.47;3.13;;;24.30;71.60;;;;;;4919463;28;95486;-89
2023/09/18 00:56:33;;;;;;;3.28;2.97;;;24.30;71.70;;;;;;4935223;28;93106;-90
2023/09/18 00:59:01;;;;;;;3.40;3.10;;;24.20;71.60;;;;;;4936608;28;92458;-91
2023/09/18 01:01:27;;;;;;;3.10;2.80;;;24.30;71.60;;;;;;4916216;28;91870;-90
2023/09/18 01:03:53;;;;;;;3.38;3.08;;;24.30;72.10;;;;;;4917994;28;94492;-91
2023/09/18 01:06:20;;;;;;;3.28;2.80;;;24.30;71.90;;;;;;4937951;28;92885;-90
2023/09/18 01:08:50;;;;;;;3.40;3.10;;;24.20;72.00;;;;;;4933722;28;94096;-90
2023/09/18 01:11:39;;;;;;;3.10;2.80;;;24.20;71.90;;;;;;4939917;28;93088;-90
2023/09/18 01:14:18;;;;;;;5.03;3.95;;;24.20;71.90;;;;;;4938257;28;93651;-89
2023/09/18 01:16:57;;;;;;;;;;;24.30;71.90;;;;;;4935808;28;93043;-91
2023/09/18 01:19:41;;;;;;;5.85;3.50;;;24.20;71.90;;;;;;4920772;28;92790;-90
2023/09/18 01:22:09;;;;;;;4.13;3.25;;;24.20;71.80;;;;;;4935656;28;93284;-90
2023/09/18 01:24:35;;;;;;;4.15;3.13;;;24.20;72.00;;;;;;4918650;28;95370;-89
2023/09/18 01:27:05;;;;;;;3.85;3.45;;;24.20;71.90;;;;;;4928280;28;94990;-91
2023/09/18 01:29:32;;;;;;;3.30;3.00;;;24.20;71.90;;;;;;4935320;28;92099;-90
2023/09/18 01:31:58;;;;;;;3.10;2.80;;;24.20;71.80;;;;;;4899289;28;92037;-90
2023/09/18 01:34:33;;;;;;;3.15;2.85;;;24.20;71.80;;;;;;4915687;28;95167;-90
2023/09/18 01:37:00;;;;;;;3.92;3.20;;;24.20;71.70;;;;;;4937496;28;94633;-89
2023/09/18 01:39:31;;;;;;;3.42;3.13;;;24.20;71.70;;;;;;4934780;28;92024;-89
2023/09/18 01:42:02;;;;;;;4.03;3.10;;;24.20;71.60;;;;;;4936184;28;92455;-90
2023/09/18 01:44:28;;;;;;;3.58;3.22;;;24.20;71.70;;;;;;4917776;28;95581;-90
2023/09/18 01:46:58;;;;;;;3.30;3.00;;;24.20;71.80;;;;;;4919106;28;95180;-90
2023/09/18 01:49:28;;;;;;;3.20;2.90;;;24.20;71.70;;;;;;4929947;28;93399;-90
2023/09/18 01:51:54;;;;;;;3.35;3.05;;;24.20;71.60;;;;;;4940440;28;91724;-90
2023/09/18 01:54:19;;;;;;;3.47;3.17;;;24.20;71.60;;;;;;4919266;28;95078;-90
2023/09/18 01:56:46;;;;;;;2.97;2.78;;;24.20;71.90;;;;;;4917817;28;94126;-89
2023/09/18 01:59:12;;;;;;;3.45;3.13;;;24.20;71.60;;;;;;4933807;28;93738;-89
2023/09/18 02:01:38;;;;;;;4.15;3.10;;;24.20;71.50;;;;;;4937505;28;92041;-89
2023/09/18 02:04:04;;;;;;;5.13;3.10;;;24.20;71.70;;;;;;4922073;28;94901;-91
2023/09/18 02:06:30;;;;;;;4.18;3.10;;;24.20;71.70;;;;;;4920431;28;95719;-89
2023/09/18 02:08:56;;;;;;;3.45;3.15;;;24.20;71.50;;;;;;4918270;28;92407;-90
2023/09/18 02:11:21;;;;;;;3.75;3.08;;;24.20;71.60;;;;;;4941260;28;93367;-90
2023/09/18 02:13:47;;;;;;;3.63;3.17;;;24.20;71.50;;;;;;4918857;28;95661;-90
2023/09/18 02:16:13;;;;;;;3.65;3.35;;;24.20;71.60;;;;;;4941274;28;93878;-89
2023/09/18 02:18:38;;;;;;;3.28;2.97;;;24.10;71.60;;;;;;4921686;28;93115;-90
2023/09/18 02:21:04;;;;;;;3.28;2.80;;;24.10;71.40;;;;;;4923169;28;92751;-89
2023/09/18 02:23:30;;;;;;;4.65;2.92;;;24.20;71.60;;;;;;4920719;28;96797;-90
2023/09/18 02:25:59;;;;;;;3.15;2.83;;;24.10;71.70;;;;;;4939214;28;93792;-90
2023/09/18 02:28:25;;;;;;;2.85;2.65;;;24.20;71.60;;;;;;4920727;28;93159;-89
2023/09/18 02:30:51;;;;;;;3.00;2.72;;;24.10;71.50;;;;;;4936710;28;93234;-89
2023/09/18 02:33:17;;;;;;;3.38;3.08;;;24.10;71.50;;;;;;4935509;28;94258;-89
2023/09/18 02:35:43;;;;;;;3.90;2.83;;;24.20;71.50;;;;;;4919787;28;95722;-90
2023/09/18 02:38:09;;;;;;;3.63;3.25;;;24.10;71.60;;;;;;4926201;28;92334;-90
2023/09/18 02:40:34;;;;;;;3.60;3.00;;;24.20;71.50;;;;;;4922537;28;92467;-90
2023/09/18 02:43:02;;;;;;;3.85;2.75;;;24.20;71.50;;;;;;4919858;28;95541;-91
2023/09/18 02:45:27;;;;;;;3.35;3.05;;;24.10;71.40;;;;;;4919896;28;92906;-89
2023/09/18 02:47:53;;;;;;;4.97;2.90;;;24.20;71.40;;;;;;4939222;28;93560;-89
2023/09/18 02:50:19;;;;;;;3.95;3.50;;;24.10;71.50;;;;;;4922397;28;92595;-91
2023/09/18 02:52:44;;;;;;;3.25;2.95;;;24.10;71.70;;;;;;4937685;28;93170;-88
2023/09/18 02:55:10;;;;;;;3.05;2.75;;;24.10;71.50;;;;;;4921388;28;95073;-90
2023/09/18 02:57:36;;;;;;;3.15;2.85;;;24.10;71.70;;;;;;4919954;28;93310;-90
2023/09/18 03:00:03;;;;;;;3.60;3.30;;;24.10;71.50;;;;;;4922708;28;92193;-90
2023/09/18 03:02:29;;;;;;;3.45;2.53;;;24.10;71.60;;;;;;4922087;28;95129;-89
2023/09/18 03:04:55;;;;;;;4.95;2.88;;;24.10;71.60;;;;;;4921297;28;95143;-90
2023/09/18 03:07:22;;;;;;;3.00;2.70;;;24.10;71.50;;;;;;4937298;28;92720;-90
2023/09/18 03:09:48;;;;;;;3.47;2.92;;;24.10;71.50;;;;;;4937391;28;92672;-90
2023/09/18 03:12:13;;;;;;;3.13;2.80;;;24.10;71.50;;;;;;4922661;28;95319;-90
2023/09/18 03:14:39;;;;;;;3.58;3.17;;;24.10;71.50;;;;;;4935752;28;94062;-92
2023/09/18 03:17:05;;;;;;;2.88;2.67;;;24.10;71.70;;;;;;4918284;28;93251;-90
2023/09/18 03:19:30;;;;;;;3.15;2.85;;;24.10;71.80;;;;;;4934504;28;92556;-90
2023/09/18 03:21:56;;;;;;;3.20;2.92;;;24.10;71.70;;;;;;4919759;28;96765;-89
2023/09/18 03:24:22;;;;;;;3.22;2.92;;;24.10;71.70;;;;;;4937717;28;92194;-90
2023/09/18 03:26:49;;;;;;;5.40;3.30;;;24.10;71.60;;;;;;4935445;28;93035;-88
2023/09/18 03:29:14;;;;;;;3.03;2.70;;;24.10;72.30;;;;;;4921370;28;92072;-90
2023/09/18 03:31:40;;;;;;;3.75;3.10;;;24.10;71.60;;;;;;4921619;28;95972;-89
2023/09/18 03:34:06;;;;;;;2.80;2.60;;;24.00;71.40;;;;;;4936112;28;93027;-90
2023/09/18 03:36:32;;;;;;;2.88;2.67;;;24.10;71.50;;;;;;4918619;28;94461;-89
2023/09/18 03:38:58;;;;;;;3.15;2.85;;;24.00;71.50;;;;;;4923055;28;93755;-90
2023/09/18 03:41:24;;;;;;;3.40;3.10;;;24.10;71.50;;;;;;4936061;28;93391;-90
2023/09/18 03:43:50;;;;;;;3.90;2.80;;;24.00;71.50;;;;;;4919021;28;95247;-91
2023/09/18 03:46:16;;;;;;;3.35;2.80;;;24.10;71.70;;;;;;4941561;28;93206;-89
2023/09/18 03:48:41;;;;;;;3.60;3.20;;;24.00;71.30;;;;;;4921388;28;92409;-90
2023/09/18 03:51:08;;;;;;;3.20;2.90;;;24.10;71.40;;;;;;4920143;28;95382;-89
2023/09/18 03:53:34;;;;;;;2.97;2.72;;;24.10;71.60;;;;;;4932622;28;93069;-90
2023/09/18 03:56:00;;;;;;;3.35;2.60;;;24.00;71.40;;;;;;4922091;28;94121;-89
2023/09/18 03:58:26;;;;;;;2.80;2.55;;;24.00;72.20;;;;;;4921199;28;92439;-90
2023/09/18 04:00:52;;;;;;;3.47;3.03;;;24.10;71.50;;;;;;4936692;28;93693;-90
2023/09/18 04:03:18;;;;;;;3.20;2.90;;;24.00;71.40;;;;;;4918954;28;96730;-90
2023/09/18 04:05:44;;;;;;;4.18;3.17;;;24.00;71.50;;;;;;4926335;28;93364;-89
2023/09/18 04:08:10;;;;;;;3.50;3.20;;;24.00;71.50;;;;;;4919980;28;92789;-89
2023/09/18 04:10:36;;;;;;;2.92;2.72;;;24.00;71.40;;;;;;4936202;28;93158;-88
2023/09/18 04:13:02;;;;;;;3.63;3.10;;;24.00;71.30;;;;;;4917038;28;96124;-89
2023/09/18 04:15:30;;;;;;;3.50;3.20;;;24.00;71.40;;;;;;4922026;28;92621;-90
2023/09/18 04:17:56;;;;;;;4.88;2.97;;;24.00;71.30;;;;;;4918508;28;92078;-90
2023/09/18 04:20:25;;;;;;;3.38;2.83;;;24.00;71.20;;;;;;4902973;28;92918;-90
2023/09/18 04:23:18;;;;;;;3.08;2.78;;;24.00;71.40;;;;;;4917888;28;95357;-89
2023/09/18 04:25:44;;;;;;;3.03;2.70;;;24.00;71.40;;;;;;4939941;28;94049;-90
2023/09/18 04:28:09;;;;;;;2.90;2.63;;;24.00;71.40;;;;;;4921251;28;92200;-90
2023/09/18 04:30:35;;;;;;;3.08;2.78;;;24.00;71.30;;;;;;4918769;28;95531;-89
2023/09/18 04:33:01;;;;;;;2.58;2.38;;;24.00;71.20;;;;;;4917347;28;95038;-90
2023/09/18 04:35:27;;;;;;;3.03;2.72;;;24.00;71.30;;;;;;4937766;28;92899;-90
2023/09/18 04:37:56;;;;;;;2.45;2.25;;;24.00;71.30;;;;;;4917683;28;92779;-90
2023/09/18 04:40:23;;;;;;;;;;;24.00;71.30;;;;;;4922265;28;94883;-89
2023/09/18 04:42:49;;;;;;;3.17;2.67;;;24.00;71.30;;;;;;4940898;28;92060;-89
2023/09/18 04:45:15;;;;;;;3.95;3.38;;;24.00;71.60;;;;;;4918948;28;92512;-90
2023/09/18 04:47:42;;;;;;;2.70;2.50;;;24.00;71.60;;;;;;4936162;28;92034;-89
2023/09/18 04:50:09;;;;;;;3.03;2.83;;;24.00;71.40;;;;;;4918979;28;95647;-89
2023/09/18 04:52:38;;;;;;;3.75;2.65;;;24.00;71.40;;;;;;4920573;28;95392;-90
2023/09/18 04:55:06;;;;;;;2.92;2.63;;;24.00;71.40;;;;;;4917560;28;92745;-89
2023/09/18 04:57:31;;;;;;;3.45;3.05;;;24.00;71.30;;;;;;4921527;28;93323;-90
2023/09/18 04:59:57;;;;;;;2.97;2.50;;;24.00;71.20;;;;;;4931988;28;92696;-89
2023/09/18 05:02:25;;;;;;;2.53;2.33;;;24.00;71.30;;;;;;4919148;28;93843;-89
2023/09/18 05:04:51;;;;;;;3.30;2.63;;;24.00;71.40;;;;;;4903316;28;92502;-89
2023/09/18 05:07:17;;;;;;;2.65;2.45;;;24.00;71.40;;;;;;4919251;28;91723;-89
2023/09/18 05:09:42;;;;;;;3.70;2.83;;;24.00;71.40;;;;;;4920029;28;95638;-89
2023/09/18 05:12:13;;;;;;;2.65;2.45;;;24.00;71.40;;;;;;4919538;28;93797;-90
2023/09/18 05:14:40;;;;;;;3.28;2.60;;;23.90;71.10;;;;;;4919792;28;93002;-89
2023/09/18 05:17:06;;;;;;;3.20;2.90;;;24.00;71.30;;;;;;4938468;28;92808;-90
2023/09/18 05:19:32;;;;;;;3.17;2.85;;;24.00;71.30;;;;;;4937132;28;93801;-90
2023/09/18 05:21:58;;;;;;;3.08;2.78;;;23.90;71.40;;;;;;4915889;28;95204;-89
2023/09/18 05:24:27;;;;;;;2.95;2.35;;;23.90;71.20;;;;;;4913632;28;93202;-90
2023/09/18 05:26:53;;;;;;;2.80;2.60;;;23.90;71.10;;;;;;4918265;28;92649;-89
2023/09/18 05:29:19;;;;;;;3.42;2.85;;;24.00;71.30;;;;;;4929222;28;95607;-90
2023/09/18 05:31:45;;;;;;;3.20;2.90;;;23.90;71.20;;;;;;4930316;28;94356;-90
2023/09/18 05:34:12;;;;;;;3.45;2.72;;;23.90;71.20;;;;;;4936560;28;93087;-89
2023/09/18 05:36:37;;;;;;;2.63;2.42;;;23.90;71.20;;;;;;4935759;28;93660;-89
2023/09/18 05:39:04;;;;;;;3.33;2.90;;;23.90;71.30;;;;;;4916226;28;95071;-89
2023/09/18 05:41:30;;;;;;;3.05;2.85;;;23.90;71.30;;;;;;4905865;28;95030;-90
2023/09/18 05:43:56;;;;;;;3.40;3.10;;;23.90;71.10;;;;;;4920320;28;92623;-89
2023/09/18 05:46:22;;;;;;;2.92;2.55;;;23.90;71.20;;;;;;4924432;28;92522;-89
2023/09/18 05:48:48;;;;;;;2.83;2.60;;;23.90;71.10;;;;;;4919890;28;94236;-89
2023/09/18 05:51:13;;;;;;;2.83;2.63;;;23.90;71.20;;;;;;4940759;28;93165;-89
2023/09/18 05:53:39;;;;;;;2.88;2.45;;;23.90;71.10;;;;;;4946635;28;93427;-91
2023/09/18 05:56:06;;;;;;;3.00;2.70;;;23.90;71.20;;;;;;4923877;28;92091;-90
2023/09/18 05:58:32;;;;;;;3.47;2.42;;;23.90;71.20;;;;;;4938821;28;93437;-89
2023/09/18 06:01:00;;;;;;;3.00;2.65;;;23.90;71.10;;;;;;4942560;28;93912;-89
2023/09/18 06:03:35;;;;;;;3.70;2.40;;;23.90;70.90;;;;;;4932403;28;93379;-89
2023/09/18 06:06:04;;;;;;;3.00;2.70;;;23.90;70.90;;;;;;4907007;28;92077;-90
2023/09/18 06:08:31;;;;;;;3.13;2.63;;;23.90;70.90;;;;;;4935442;28;93933;-90
2023/09/18 06:10:57;;;;;;;3.75;2.67;;;23.90;70.90;;;;;;4937479;28;93773;-90
2023/09/18 06:13:27;;;;;;;4.22;2.70;;;23.90;70.80;;;;;;4929578;28;92842;-90
2023/09/18 06:15:56;;;;;;;2.90;2.58;;;23.90;70.80;;;;;;4920502;28;92447;-90
2023/09/18 06:18:22;;;;;;;3.05;2.55;;;23.90;70.80;;;;;;4921822;28;96170;-90
2023/09/18 06:20:49;;;;;;;3.78;2.45;;;23.90;70.80;;;;;;4922978;28;95410;-89
2023/09/18 06:23:15;;;;;;;2.67;2.38;;;23.90;70.80;;;;;;4920665;28;93785;-89
2023/09/18 06:25:41;;;;;;;2.90;2.50;;;23.90;70.80;;;;;;4919771;28;92645;-88
2023/09/18 06:28:07;;;;;;;4.70;2.80;;;23.90;70.70;;;;;;4938722;28;94533;-89
2023/09/18 06:30:44;;;;;;;3.10;2.42;;;23.90;70.70;;;;;;4942643;28;92807;-94
2023/09/18 06:33:12;;;;;;;2.35;2.10;;;23.90;70.90;;;;;;4942682;28;92674;-94
2023/09/18 06:35:45;;;;;;;4.13;1.90;;;24.00;69.70;;;;;;4924482;28;92095;-96
2023/09/18 06:38:16;;;;;;;3.55;2.30;;;24.00;69.20;;;;;;4927719;28;95759;-94
2023/09/18 06:40:42;;;;;;;2.70;2.15;;;24.00;68.80;;;;;;4915431;28;95191;-94
2023/09/18 06:43:08;;;;;;;3.30;2.25;;;24.00;69.10;;;;;;4922771;28;92561;-92
2023/09/18 06:45:34;;;;;;;2.90;1.90;;;24.00;69.40;;;;;;4923492;28;92064;-92
2023/09/18 06:48:03;;;;;;;2.78;1.90;;;24.00;69.10;;;;;;4921713;28;95455;-92
2023/09/18 06:50:28;;;;;;;3.15;1.83;;;24.00;69.30;;;;;;4920477;28;97880;-89
2023/09/18 06:52:54;;;;;;;5.40;1.98;;;24.00;69.20;;;;;;4907290;28;93245;-94
2023/09/18 06:55:26;;;;;;;2.95;1.98;;;24.00;69.30;;;;;;4922938;28;92409;-94
2023/09/18 06:57:56;;;;;;;4.82;2.05;;;23.90;69.40;;;;;;4938174;28;94213;-95
2023/09/18 07:00:22;;;;;;;6.35;1.80;;;24.10;69.20;;;;;;4913169;28;94893;-93
2023/09/18 07:02:49;;;;;;;4.35;2.17;;;24.00;69.10;;;;;;4938422;28;92320;-94
2023/09/18 07:05:17;;;;;;;4.88;1.85;;;24.00;69.00;;;;;;4921539;28;92339;-93
2023/09/18 07:07:43;;;;;;;3.97;1.60;;;24.00;68.70;;;;;;4908282;28;95392;-93
2023/09/18 07:10:40;;;;;;;7.10;1.77;;;23.90;68.70;;;;;;4931066;28;95326;-95
2023/09/18 07:13:24;;;;;;;4.95;1.77;;;24.00;68.30;;;;;;4926621;28;92406;-94
2023/09/18 07:15:53;;;;;;;3.42;1.45;;;24.00;67.80;;;;;;4924355;28;92137;-94
2023/09/18 07:18:18;;;;;;;1.90;1.48;;;24.00;67.80;;;;;;4923108;28;95788;-94
2023/09/18 07:21:42;;;;;;;;;;;;;;;;;;;;;
2023/09/18 07:23:56;;;;;;;2.78;1.25;;;24.00;67.60;;;;;;4897951;28;93601;-93
2023/09/18 07:26:25;;;;;;;4.07;1.40;;;23.90;67.30;;;;;;4913974;28;92270;-95
2023/09/18 07:28:50;;;;;;;25.90;4.68;;;24.00;67.90;;;;;;4921992;28;95641;-93
2023/09/18 07:31:16;;;;;;;62.10;11.25;;;24.00;67.50;;;;;;4924816;28;95701;-94
2023/09/18 07:33:41;;;;;;;40.83;8.68;;;24.00;67.10;;;;;;4926884;28;92788;-95
2023/09/18 07:36:09;;;;;;;31.30;6.85;;;24.00;67.40;;;;;;4921614;28;91476;-95
2023/09/18 07:38:36;;;;;;;21.88;5.25;;;24.00;67.50;;;;;;4923391;28;94531;-94
2023/09/18 07:41:02;;;;;;;28.15;5.38;;;24.00;67.60;;;;;;4923522;28;94143;-95
2023/09/18 07:43:27;;;;;;;20.40;4.35;;;23.90;67.20;;;;;;4922268;28;93128;-94
2023/09/18 07:45:54;;;;;;;15.77;4.20;;;23.90;67.00;;;;;;4925158;28;92560;-96
2023/09/18 07:48:23;;;;;;;16.73;3.70;;;23.90;66.90;;;;;;4923613;28;95080;-94
2023/09/18 07:50:49;;;;;;;8.65;3.05;;;23.90;66.70;;;;;;4913743;28;95069;-95
2023/09/18 07:53:15;;;;;;;12.93;3.33;;;23.90;66.70;;;;;;4924999;28;92529;-95
2023/09/18 07:55:41;;;;;;;5.85;2.33;;;23.90;66.90;;;;;;4922708;28;92375;-95
2023/09/18 07:58:07;;;;;;;8.63;2.30;;;23.90;66.70;;;;;;4923813;28;96354;-95
2023/09/18 08:00:33;;;;;;;9.75;3.10;;;23.90;66.80;;;;;;4922661;28;94848;-96
2023/09/18 08:03:00;;;;;;;8.52;2.67;;;23.90;66.50;;;;;;4921179;28;99166;-95
2023/09/18 08:05:31;;;;;;;12.73;2.83;;;23.90;66.60;;;;;;4921753;28;92514;-95
2023/09/18 08:07:58;;;;;;;9.38;2.90;;;23.90;66.80;;;;;;4915050;28;96205;-95
2023/09/18 08:10:27;;;;;;;9.60;3.30;;;23.90;67.10;;;;;;4920668;28;96293;-95
2023/09/18 08:12:53;;;;;;;12.88;2.90;;;23.90;66.80;;;;;;4924719;28;92964;-95
2023/09/18 08:15:22;;;;;;;9.95;3.08;;;24.00;66.90;;;;;;4922983;28;92556;-95
2023/09/18 08:17:49;;;;;;;8.85;2.75;;;23.90;67.10;;;;;;4928295;28;94398;-95
2023/09/18 08:20:16;;;;;;;8.18;2.50;;;23.90;66.60;;;;;;4920305;28;94427;-96
2023/09/18 08:22:44;;;;;;;9.05;2.50;;;23.90;67.10;;;;;;4921336;28;92375;-96
2023/09/18 08:25:11;;;;;;;6.07;2.00;;;23.90;66.90;;;;;;4906180;28;92432;-96
2023/09/18 08:27:41;;;;;;;7.28;2.47;;;24.00;67.10;;;;;;4919313;28;94987;-95
2023/09/18 08:30:09;;;;;;;8.27;2.47;;;23.90;66.80;;;;;;4923037;28;94359;-95
2023/09/18 08:32:36;;;;;;;7.90;2.65;;;23.90;66.90;;;;;;4923239;28;93376;-95
2023/09/18 08:35:02;;;;;;;5.57;2.05;;;24.00;67.00;;;;;;4935572;28;92811;-96
2023/09/18 08:37:27;;;;;;;4.72;2.17;;;24.00;67.00;;;;;;4920127;28;94166;-95
2023/09/18 08:39:54;;;;;;;6.43;2.25;;;24.00;66.80;;;;;;4921769;28;95189;-96
2023/09/18 08:42:21;;;;;;;5.57;2.45;;;24.00;66.70;;;;;;4921045;28;93449;-95
2023/09/18 08:44:50;;;;;;;3.53;2.00;;;24.00;66.40;;;;;;4938477;28;93257;-94
2023/09/18 08:47:18;;;;;;;6.05;1.58;;;24.10;66.30;;;;;;4919399;28;94600;-95
2023/09/18 08:49:46;;;;;;;3.45;1.60;;;24.10;66.30;;;;;;4904417;28;92721;-94
2023/09/18 08:52:14;;;;;;;4.50;1.60;;;24.10;66.10;;;;;;4930897;28;93575;-95
2023/09/18 08:54:40;;;;;;;4.30;1.80;;;24.10;65.90;;;;;;4930424;28;93128;-95
2023/09/18 08:57:07;;;;;;;5.25;1.80;;;24.10;65.90;;;;;;4929109;28;96749;-96
2023/09/18 08:59:36;;;;;;;3.55;1.60;;;24.20;65.90;;;;;;4912691;28;96179;-96
2023/09/18 09:02:02;;;;;;;5.70;1.65;;;24.20;66.70;;;;;;4920900;28;92386;-95
2023/09/18 09:04:28;;;;;;;2.88;1.50;;;24.20;65.70;;;;;;4935752;28;92168;-96
2023/09/18 09:06:59;;;;;;;4.65;1.92;;;24.20;65.80;;;;;;4939718;28;92613;-95
2023/09/18 09:09:26;;;;;;;3.33;1.30;;;24.30;65.90;;;;;;4934659;28;94263;-96
2023/09/18 09:11:52;;;;;;;2.28;1.40;;;24.30;65.50;;;;;;4904824;28;92683;-96
2023/09/18 09:14:29;;;;;;;3.88;1.60;;;24.30;65.30;;;;;;4928555;28;91320;-94
2023/09/18 09:16:59;;;;;;;1.80;1.33;;;24.30;65.40;;;;;;4864002;28;1701654;-96
2023/09/18 09:19:32;;;;;;;2.88;1.60;;;24.30;65.40;;;;;;4924474;28;93810;-95
2023/09/18 09:22:00;;;;;;;3.35;1.80;;;24.30;65.30;;;;;;4922170;28;94157;-94
2023/09/18 09:24:43;;;;;;;3.93;1.47;;;24.30;65.60;;;;;;4923984;28;92649;-95
2023/09/18 09:27:10;;;;;;;3.60;1.80;;;24.30;65.20;;;;;;4916472;28;95305;-95
2023/09/18 09:29:36;;;;;;;3.30;1.30;;;24.30;65.10;;;;;;4905938;28;95746;-96
2023/09/18 09:32:19;;;;;;;2.78;1.70;;;24.30;65.20;;;;;;4902645;28;92412;-95
2023/09/18 09:34:46;;;;;;;4.10;1.45;;;24.30;65.10;;;;;;4909922;28;92643;-95
2023/09/18 09:37:13;;;;;;;2.20;1.40;;;24.30;65.20;;;;;;4920344;28;94827;-95
2023/09/18 09:39:50;;;;;;;2.17;1.25;;;24.30;65.40;;;;;;4921412;28;95248;-95
2023/09/18 09:42:28;;;;;;;4.38;1.35;;;24.40;65.40;;;;;;4921763;28;92687;-95
2023/09/18 09:45:06;;;;;;;4.53;1.80;;;24.30;65.30;;;;;;4922082;28;92964;-96
2023/09/18 09:47:36;;;;;;;3.95;1.52;;;24.40;65.20;;;;;;4930530;28;97116;-95
2023/09/18 09:50:13;;;;;;;2.83;1.52;;;24.30;65.30;;;;;;4918487;28;96325;-94
2023/09/18 09:52:44;;;;;;;2.70;1.38;;;24.30;65.10;;;;;;4941127;28;92732;-91
2023/09/18 09:55:28;;;;;;;5.22;1.80;;;24.40;65.00;;;;;;4918195;28;92165;-92
2023/09/18 09:57:59;;;;;;;1.80;1.45;;;24.50;64.90;;;;;;4936820;28;93176;-90
2023/09/18 10:00:49;;;;;;;3.05;1.50;;;24.50;64.70;;;;;;4916848;28;95453;-91
2023/09/18 10:03:20;;;;;;;4.07;1.60;;;24.50;64.30;;;;;;4933844;28;93277;-90
2023/09/18 10:05:50;;;;;;;4.53;1.60;;;24.50;64.20;;;;;;4928122;28;92355;-87
2023/09/18 10:08:27;;;;;;;3.67;1.63;;;24.40;64.10;;;;;;4919536;28;95602;-90
2023/09/18 10:10:55;;;;;;;7.32;1.90;;;24.40;64.30;;;;;;4935325;28;95496;-88
2023/09/18 10:13:39;;;;;;;3.33;1.65;;;24.40;64.60;;;;;;4933919;28;93624;-88
2023/09/18 10:16:09;;;;;;;8.73;1.92;;;24.40;64.50;;;;;;4920204;28;92848;-92
2023/09/18 10:19:00;;;;;;;2.58;1.30;;;24.40;64.50;;;;;;4923177;28;95912;-95
2023/09/18 10:21:51;;;;;;;3.28;1.60;;;24.50;64.70;;;;;;4943311;28;93467;-96
2023/09/18 10:24:33;;;;;;;4.05;1.70;;;24.50;65.10;;;;;;4947421;28;92031;-95
2023/09/18 10:27:04;;;;;;;4.28;1.98;;;24.50;65.00;;;;;;4930551;28;92349;-95
2023/09/18 10:29:33;;;;;;;4.85;2.00;;;24.50;64.70;;;;;;4906933;28;95299;-91
2023/09/18 10:31:59;;;;;;;3.38;1.60;;;24.40;65.00;;;;;;4924922;28;94881;-92
2023/09/18 10:34:25;;;;;;;6.63;1.60;;;24.40;65.40;;;;;;4929619;28;94835;-93
2023/09/18 10:36:53;;;;;;;5.82;2.15;;;24.50;65.20;;;;;;4922539;28;92885;-93
2023/09/18 10:39:26;;;;;;;6.50;2.05;;;24.50;64.90;;;;;;4916174;28;95954;-91
2023/09/18 10:42:01;;;;;;;3.47;1.48;;;24.60;65.20;;;;;;4936563;28;96036;-95
2023/09/18 10:44:31;;;;;;;4.13;2.05;;;24.60;64.90;;;;;;4942351;28;92216;-95
2023/09/18 10:46:58;;;;;;;6.53;1.95;;;24.60;64.70;;;;;;4917496;28;92641;-94
2023/09/18 10:49:24;;;;;;;4.05;1.65;;;24.60;64.90;;;;;;4934393;28;94630;-92
2023/09/18 10:52:13;;;;;;;2.20;1.48;;;24.60;64.90;;;;;;4943545;28;94361;-91
2023/09/18 10:54:40;;;;;;;4.60;1.80;;;24.70;65.00;;;;;;4925785;28;92248;-94
2023/09/18 10:57:06;;;;;;;5.90;2.28;;;24.70;64.60;;;;;;4924628;28;91403;-95
2023/09/18 10:59:34;;;;;;;3.60;1.65;;;24.70;64.20;;;;;;4916557;28;94038;-95
2023/09/18 11:02:09;;;;;;;6.70;1.33;;;24.70;64.10;;;;;;4923725;28;95218;-94
2023/09/18 11:04:36;;;;;;;2.33;1.60;;;24.70;64.10;;;;;;4923459;28;93222;-93
2023/09/18 11:07:05;;;;;;;3.28;1.73;;;24.70;64.30;;;;;;4924839;28;92330;-95
2023/09/18 11:09:43;;;;;;;3.70;2.03;;;24.70;64.50;;;;;;4924660;28;98537;-94
2023/09/18 11:12:11;;;;;;;8.07;1.92;;;24.70;63.70;;;;;;4904371;28;95587;-95
2023/09/18 11:14:45;;;;;;;5.10;1.80;;;24.60;62.60;;;;;;4928763;28;92178;-95
2023/09/18 11:17:37;;;;;;;3.70;1.75;;;24.60;62.80;;;;;;4926307;28;92766;-94
2023/09/18 11:20:09;;;;;;;4.45;1.60;;;24.60;62.80;;;;;;4921195;28;95490;-94
2023/09/18 11:22:49;;;;;;;6.47;1.88;;;24.70;63.30;;;;;;4909118;28;95386;-93
2023/09/18 11:26:04;;;;;;;3.67;1.50;;;24.60;63.20;;;;;;4908903;28;92878;-94
2023/09/18 11:28:31;;;;;;;3.95;1.95;;;24.60;63.10;;;;;;4930200;28;93018;-93
2023/09/18 11:31:14;;;;;;;7.32;1.63;;;24.60;63.30;;;;;;4925848;28;95914;-94
2023/09/18 11:33:47;;;;;;;3.47;1.92;;;24.60;63.20;;;;;;4922999;28;99230;-92
2023/09/18 11:36:43;;;;;;;2.20;1.33;;;24.60;63.30;;;;;;4900173;28;92456;-94
2023/09/18 11:39:11;;;;;;;4.78;1.92;;;24.70;63.30;;;;;;4929256;28;93549;-95
2023/09/18 11:42:08;;;;;;;5.30;2.35;;;24.70;63.30;;;;;;4923048;28;93843;-95
2023/09/18 11:44:36;;;;;;;6.93;2.00;;;24.70;63.20;;;;;;4922724;28;94550;-94
2023/09/18 11:47:04;;;;;;;7.53;2.20;;;24.70;63.30;;;;;;4923175;28;92112;-95
2023/09/18 11:53:36;;;;;;;6.72;1.80;;;24.70;62.90;;;;;;4921077;28;92865;-95
2023/09/18 11:56:19;;;;;;;;;;;;;;;;;;;;;
2023/09/18 11:58:58;;;;;;;6.95;1.77;;;24.70;63.70;;;;;;4927198;28;93469;-94
2023/09/18 12:05:14;;;;;;;6.60;1.90;;;24.70;63.10;;;;;;4844530;28;94115;-94
2023/09/18 12:07:55;;;;;;;5.57;2.25;;;24.70;63.00;;;;;;4847144;28;94703;-95
2023/09/18 12:10:58;;;;;;;;;;;;;;;;;;;;;
2023/09/18 12:13:35;;;;;;;3.13;1.70;;;24.70;62.80;;;;;;4930462;28;98615;-95
2023/09/18 12:16:14;;;;;;;5.68;2.13;;;24.70;62.70;;;;;;4924912;28;95409;-95
2023/09/18 12:18:47;;;;;;;4.15;1.85;;;24.70;62.70;;;;;;4908095;28;98114;-95
2023/09/18 12:21:37;;;;;;;6.22;1.90;;;24.70;62.30;;;;;;4924172;28;92483;-95
2023/09/18 12:24:22;;;;;;;3.28;1.73;;;24.80;62.20;;;;;;4901286;28;92975;-94
2023/09/18 12:30:38;;;;;;;3.92;1.63;;;24.80;61.80;;;;;;4905843;28;94788;-93
2023/09/18 12:36:34;;;;;;;3.60;1.67;;;24.70;62.30;;;;;;4896232;28;92408;-92
2023/09/18 12:39:02;;;;;;;3.25;1.70;;;24.70;62.80;;;;;;4909010;28;95621;-93
2023/09/18 12:41:30;;;;;;;4.07;1.63;;;24.70;62.40;;;;;;4920825;28;94859;-93
2023/09/18 12:43:56;;;;;;;3.22;1.58;;;24.80;63.20;;;;;;4922361;28;93314;-93
2023/09/18 12:46:23;;;;;;;7.85;2.15;;;24.70;62.30;;;;;;4919950;28;91907;-95
2023/09/18 12:52:10;;;;;;;2.35;1.60;;;24.70;62.60;;;;;;4876580;28;97221;-94
2023/09/18 12:54:56;;;;;;;7.57;1.80;;;24.70;62.90;;;;;;4924216;28;93365;-93
2023/09/18 12:57:21;;;;;;;3.80;1.75;;;24.70;62.90;;;;;;4878503;28;92779;-95
2023/09/18 12:59:50;;;;;;;5.13;2.38;;;24.70;63.00;;;;;;4904552;28;94841;-95
2023/09/18 13:02:18;;;;;;;4.23;2.00;;;24.80;62.80;;;;;;4922351;28;94332;-93
2023/09/18 13:04:52;;;;;;;3.10;1.67;;;24.80;62.80;;;;;;4930907;28;92599;-95
2023/09/18 13:07:18;;;;;;;5.40;1.77;;;24.80;62.40;;;;;;4938573;28;92492;-95
2023/09/18 13:09:59;;;;;;;4.50;1.73;;;24.80;62.10;;;;;;4949020;28;93267;-95
2023/09/18 13:12:25;;;;;;;4.15;1.85;;;24.70;62.20;;;;;;4939836;28;94691;-95
2023/09/18 13:15:12;;;;;;;5.00;1.73;;;24.80;62.00;;;;;;4940544;28;92579;-94
2023/09/18 13:17:44;;;;;;;3.05;1.92;;;24.70;61.80;;;;;;4941497;28;91847;-93
2023/09/18 13:20:26;;;;;;;3.55;1.67;;;24.70;62.10;;;;;;4924980;28;95773;-96